Time;durP1;ratioP1;P1;durP2;ratioP2;P2;SDS_P1;SDS_P2;PMS_P1;PMS_P2;Temp;Humidity;BMP_temperature;BMP_pressure;BME280_temperature;BME280_humidity;BME280_pressure;Samples;Min_cycle;Max_cycle;Signal;HPM_P1;HPM_P2
2021/12/08 00:04:52;;;;;;;15.70;11.20;;;22.90;49.50;;;;;;214360;1313;25658;-55
2021/12/08 00:10:04;;;;;;;16.90;11.50;;;22.80;49.80;;;;;;214393;1306;22549;-53
2021/12/08 00:15:14;;;;;;;15.30;10.70;;;22.70;49.90;;;;;;214503;1313;22634;-55
2021/12/08 00:20:18;;;;;;;15.10;10.70;;;22.70;50.00;;;;;;214577;1313;26524;-54
2021/12/08 00:25:23;;;;;;;15.80;10.80;;;22.50;50.00;;;;;;214573;1312;22779;-53
2021/12/08 00:30:30;;;;;;;16.60;11.00;;;22.40;50.30;;;;;;214407;1313;22601;-50
2021/12/08 00:35:50;;;;;;;16.10;11.10;;;22.40;50.40;;;;;;214452;1313;22551;-53
2021/12/08 00:41:01;;;;;;;16.30;11.30;;;22.30;50.40;;;;;;214405;1313;26545;-52
2021/12/08 00:46:08;;;;;;;15.10;10.60;;;22.30;50.30;;;;;;214426;1313;24752;-51
2021/12/08 00:51:12;;;;;;;15.10;10.80;;;22.30;50.40;;;;;;214507;1313;22588;-51
2021/12/08 00:56:19;;;;;;;15.00;9.40;;;22.50;49.80;;;;;;214455;1313;24329;-55
2021/12/08 01:01:22;;;;;;;15.60;10.90;;;22.90;48.90;;;;;;214468;1313;24340;-51
2021/12/08 01:06:27;;;;;;;18.00;10.10;;;23.20;48.20;;;;;;214505;1310;22790;-51
2021/12/08 01:11:30;;;;;;;17.80;10.60;;;23.40;47.70;;;;;;214545;1306;22547;-55
2021/12/08 01:16:34;;;;;;;14.40;10.10;;;23.60;47.30;;;;;;214468;1306;22755;-51
2021/12/08 01:21:38;;;;;;;14.40;10.90;;;23.60;47.10;;;;;;214483;1309;22578;-55
2021/12/08 01:26:44;;;;;;;14.70;10.50;;;23.60;47.10;;;;;;214623;1313;22598;-53
2021/12/08 01:31:48;;;;;;;15.30;10.60;;;23.60;47.00;;;;;;214557;1315;22658;-54
2021/12/08 01:36:51;;;;;;;13.50;9.70;;;23.60;47.00;;;;;;214544;1313;25388;-51
2021/12/08 01:41:55;;;;;;;14.80;10.30;;;23.70;46.90;;;;;;214544;1313;22555;-52
2021/12/08 01:47:03;;;;;;;14.60;10.30;;;23.60;46.50;;;;;;214468;1313;25633;-50
2021/12/08 01:52:09;;;;;;;14.40;10.10;;;23.70;46.40;;;;;;214616;1312;25547;-52
2021/12/08 01:57:13;;;;;;;15.60;10.30;;;23.70;46.30;;;;;;214585;1306;22662;-51
2021/12/08 02:02:17;;;;;;;14.20;9.80;;;23.70;46.20;;;;;;214566;1310;26514;-57
2021/12/08 02:07:20;;;;;;;14.80;10.20;;;23.70;46.60;;;;;;214882;1312;22635;-54
2021/12/08 02:12:25;;;;;;;15.60;10.40;;;23.80;46.40;;;;;;214359;1306;22644;-54
2021/12/08 02:17:29;;;;;;;12.60;10.00;;;23.80;46.10;;;;;;214459;1315;25549;-51
2021/12/08 02:22:42;;;;;;;15.20;9.30;;;23.80;46.10;;;;;;214493;1311;22812;-51
2021/12/08 02:27:58;;;;;;;12.60;9.70;;;23.80;46.10;;;;;;214512;1314;25501;-52
2021/12/08 02:49:20;;;;;;;14.20;10.50;;;24.00;45.70;;;;;;214453;1312;22634;-54
2021/12/08 02:54:43;;;;;;;14.10;9.70;;;24.10;45.40;;;;;;214587;1306;24244;-55
2021/12/08 02:59:47;;;;;;;14.40;10.30;;;24.00;45.40;;;;;;214484;1314;24327;-53
2021/12/08 03:04:50;;;;;;;13.50;9.80;;;23.90;45.40;;;;;;214585;1313;22586;-51
2021/12/08 03:09:54;;;;;;;15.10;9.30;;;23.90;45.40;;;;;;214645;1313;22555;-53
2021/12/08 03:14:58;;;;;;;13.70;9.80;;;23.90;45.40;;;;;;214402;1313;22583;-52
2021/12/08 03:20:06;;;;;;;14.80;10.60;;;23.90;45.30;;;;;;214494;1313;25525;-54
2021/12/08 03:25:13;;;;;;;13.70;10.20;;;23.90;45.30;;;;;;214689;1312;22552;-51
2021/12/08 03:30:27;;;;;;;13.90;9.60;;;23.90;45.50;;;;;;214621;1313;25510;-54
2021/12/08 03:35:31;;;;;;;12.40;9.40;;;23.90;45.50;;;;;;214466;1313;24304;-56
2021/12/08 03:40:35;;;;;;;13.20;9.40;;;23.90;45.80;;;;;;214417;1313;22581;-54
2021/12/08 03:45:48;;;;;;;13.50;9.60;;;23.90;45.70;;;;;;214407;1312;26086;-52
2021/12/08 03:50:53;;;;;;;13.10;9.70;;;23.90;45.70;;;;;;214690;1312;22597;-56
2021/12/08 03:55:57;;;;;;;13.00;9.50;;;23.90;45.90;;;;;;214697;1312;24896;-57
2021/12/08 04:01:06;;;;;;;13.90;9.20;;;23.90;45.80;;;;;;214715;1312;25524;-55
2021/12/08 04:06:26;;;;;;;12.30;9.30;;;24.00;45.30;;;;;;214819;1313;22590;-52
2021/12/08 04:11:30;;;;;;;12.10;9.40;;;24.00;45.10;;;;;;214553;1313;25251;-55
2021/12/08 04:16:38;;;;;;;12.20;9.50;;;24.10;45.20;;;;;;214625;1315;27086;-53
2021/12/08 04:21:42;;;;;;;12.40;9.10;;;24.10;44.80;;;;;;214544;1314;24333;-52
2021/12/08 04:26:52;;;;;;;14.10;10.20;;;24.10;45.10;;;;;;214733;1313;25248;-52
2021/12/08 04:31:57;;;;;;;12.30;9.50;;;24.00;45.00;;;;;;214902;1316;25415;-53
2021/12/08 04:37:15;;;;;;;12.20;9.60;;;24.00;45.40;;;;;;214633;1310;25345;-54
2021/12/08 04:42:32;;;;;;;13.30;9.20;;;24.00;45.00;;;;;;214510;1313;22558;-55
2021/12/08 04:47:48;;;;;;;13.30;9.30;;;24.00;45.00;;;;;;214508;1313;24298;-54
2021/12/08 04:53:08;;;;;;;12.30;8.70;;;24.00;45.10;;;;;;214539;1313;22564;-52
2021/12/08 05:09:11;;;;;;;14.20;9.30;;;23.90;45.20;;;;;;214400;1311;26623;-51
2021/12/08 05:14:32;;;;;;;11.70;8.60;;;23.90;45.30;;;;;;214533;1313;26575;-53
2021/12/08 05:19:39;;;;;;;12.60;8.70;;;23.90;45.10;;;;;;214404;1313;22612;-51
2021/12/08 05:24:51;;;;;;;13.40;9.20;;;23.90;45.30;;;;;;214402;1311;22574;-51
2021/12/08 05:30:07;;;;;;;14.60;10.00;;;23.90;45.00;;;;;;214522;1313;22735;-51
2021/12/08 05:35:18;;;;;;;14.50;9.80;;;24.10;44.70;;;;;;214543;1313;22717;-54
2021/12/08 05:40:34;;;;;;;13.10;10.70;;;24.10;44.60;;;;;;214515;1313;24283;-53
2021/12/08 05:45:39;;;;;;;12.40;9.10;;;24.10;44.50;;;;;;214385;1314;24290;-51
2021/12/08 05:50:53;;;;;;;11.80;8.80;;;24.10;44.60;;;;;;214459;1309;22581;-51
2021/12/08 05:55:57;;;;;;;12.60;8.70;;;24.10;44.50;;;;;;214745;1306;25015;-53
2021/12/08 06:01:05;;;;;;;12.00;8.80;;;24.10;44.60;;;;;;214800;1313;24848;-56
2021/12/08 06:06:10;;;;;;;15.10;10.20;;;24.10;44.60;;;;;;214762;1312;26696;-53
2021/12/08 06:11:14;;;;;;;14.50;10.10;;;24.10;44.50;;;;;;214367;1315;22677;-52
2021/12/08 06:16:21;;;;;;;12.60;9.30;;;24.10;45.00;;;;;;214534;1306;22562;-50
2021/12/08 06:21:29;;;;;;;12.60;9.40;;;24.00;44.80;;;;;;214771;1313;23333;-53
2021/12/08 06:26:33;;;;;;;14.30;10.30;;;24.00;44.80;;;;;;214761;1313;24392;-51
2021/12/08 06:31:39;;;;;;;15.80;10.20;;;24.00;45.00;;;;;;214709;1313;25434;-54
2021/12/08 06:36:49;;;;;;;11.80;9.00;;;23.90;45.30;;;;;;214483;1313;22666;-52
2021/12/08 06:41:59;;;;;;;12.40;9.20;;;24.00;44.90;;;;;;214567;1313;25509;-55
2021/12/08 06:47:06;;;;;;;14.60;9.50;;;24.00;44.70;;;;;;214482;1310;25565;-54
2021/12/08 06:52:18;;;;;;;13.60;9.30;;;24.00;45.10;;;;;;214401;1312;25341;-52
2021/12/08 06:57:27;;;;;;;13.30;9.80;;;24.00;45.00;;;;;;214435;1313;22551;-53
2021/12/08 07:03:03;;;;;;;13.10;9.30;;;24.10;44.50;;;;;;214450;1306;22668;-53
2021/12/08 07:08:06;;;;;;;14.50;9.50;;;24.10;44.80;;;;;;214281;1310;25689;-52
2021/12/08 07:13:14;;;;;;;16.10;9.70;;;24.10;44.40;;;;;;214472;1314;22573;-55
2021/12/08 07:18:25;;;;;;;12.90;9.40;;;24.10;44.50;;;;;;214290;1307;22584;-52
2021/12/08 07:23:38;;;;;;;12.40;9.20;;;24.10;45.10;;;;;;214580;1306;25330;-55
2021/12/08 07:28:44;;;;;;;14.60;9.70;;;24.10;44.60;;;;;;214301;1309;22656;-53
2021/12/08 07:33:48;;;;;;;16.70;9.00;;;24.00;44.60;;;;;;214334;1309;22610;-53
2021/12/08 07:38:54;;;;;;;17.30;9.10;;;24.10;45.10;;;;;;214461;1306;24846;-54
2021/12/08 07:44:05;;;;;;;12.70;8.70;;;24.00;45.30;;;;;;214493;1312;22574;-54
2021/12/08 07:49:21;;;;;;;13.90;9.30;;;24.00;45.20;;;;;;214346;1309;22586;-52
2021/12/08 07:54:26;;;;;;;14.10;8.30;;;24.00;45.50;;;;;;214491;1311;25577;-52
2021/12/08 07:59:30;;;;;;;16.30;8.90;;;23.80;45.50;;;;;;214685;1310;162671;-53
2021/12/08 08:04:41;;;;;;;19.70;9.40;;;23.70;46.30;;;;;;214625;1306;22565;-53
2021/12/08 08:09:49;;;;;;;13.30;9.00;;;23.50;46.70;;;;;;214474;1300;24324;-53
2021/12/08 08:14:58;;;;;;;19.60;8.50;;;23.30;47.40;;;;;;214320;1309;23110;-55
2021/12/08 08:20:10;;;;;;;19.10;9.20;;;23.20;47.80;;;;;;214457;1306;22577;-52
2021/12/08 08:25:19;;;;;;;14.80;8.50;;;23.00;48.20;;;;;;214281;1306;22575;-54
2021/12/08 08:30:28;;;;;;;15.00;9.40;;;22.90;48.50;;;;;;214370;1306;24321;-54
2021/12/08 08:35:41;;;;;;;16.20;9.00;;;22.80;48.80;;;;;;214376;1306;22735;-55
2021/12/08 08:40:55;;;;;;;16.30;10.00;;;22.70;48.80;;;;;;214444;1306;22596;-52
2021/12/08 08:46:16;;;;;;;14.90;9.40;;;22.70;48.80;;;;;;214255;1314;23084;-51
2021/12/08 08:51:40;;;;;;;17.10;8.90;;;22.60;48.80;;;;;;214487;1314;25497;-51
2021/12/08 08:56:53;;;;;;;16.00;9.10;;;22.50;49.10;;;;;;214552;1314;25239;-52
2021/12/08 09:02:02;;;;;;;14.80;9.70;;;22.40;49.00;;;;;;214458;1313;24449;-50
2021/12/08 09:07:14;;;;;;;;;;;22.30;49.00;;;;;;214448;1306;26635;-51
2021/12/08 09:12:31;;;;;;;13.90;8.80;;;22.20;49.50;;;;;;213942;1306;22605;-52
2021/12/08 09:17:52;;;;;;;17.50;9.10;;;22.40;48.60;;;;;;214469;1311;22566;-51
2021/12/08 09:23:07;;;;;;;13.50;9.10;;;22.70;48.00;;;;;;214386;1306;22798;-52
2021/12/08 09:28:24;;;;;;;15.90;9.30;;;23.00;47.20;;;;;;215003;1313;23464;-54
2021/12/08 09:33:39;;;;;;;14.20;8.60;;;23.20;46.40;;;;;;214305;1314;22648;-54
2021/12/08 09:38:50;;;;;;;16.20;9.20;;;23.30;46.10;;;;;;215758;1313;22632;-53
2021/12/08 09:44:20;;;;;;;16.30;8.90;;;23.00;49.60;;;;;;214390;1313;25614;-53
2021/12/08 09:49:26;;;;;;;15.70;8.50;;;22.90;50.00;;;;;;214489;1314;22624;-51
2021/12/08 09:54:30;;;;;;;15.20;9.40;;;22.90;51.10;;;;;;214327;1315;25324;-51
2021/12/08 09:59:44;;;;;;;14.70;8.90;;;22.90;51.10;;;;;;214311;1316;24316;-51
2021/12/08 10:04:49;;;;;;;15.90;9.20;;;22.90;52.00;;;;;;214315;1314;22563;-53
2021/12/08 10:09:53;;;;;;;14.10;8.70;;;22.90;51.50;;;;;;214476;1312;25335;-53
2021/12/08 10:14:57;;;;;;;13.20;8.70;;;22.80;51.80;;;;;;214551;1314;22769;-54
2021/12/08 10:20:10;;;;;;;14.80;9.30;;;22.80;52.30;;;;;;214644;1313;24319;-53
2021/12/08 10:25:20;;;;;;;13.50;8.10;;;22.80;52.00;;;;;;214554;1313;23245;-51
2021/12/08 10:30:25;;;;;;;13.70;8.60;;;22.70;52.10;;;;;;214644;1312;25233;-53
2021/12/08 10:35:46;;;;;;;14.50;8.50;;;22.70;52.10;;;;;;214556;1313;25544;-53
2021/12/08 10:41:02;;;;;;;15.30;8.50;;;22.70;52.10;;;;;;214638;1313;22661;-52
2021/12/08 10:46:11;;;;;;;16.00;9.30;;;22.60;52.70;;;;;;214674;1312;25686;-53
2021/12/08 10:56:43;;;;;;;14.00;9.50;;;22.60;51.70;;;;;;214507;1316;23289;-51
2021/12/08 11:01:46;;;;;;;12.90;8.20;;;22.70;52.10;;;;;;214568;1313;24425;-52
2021/12/08 11:07:03;;;;;;;13.60;8.40;;;22.70;52.30;;;;;;214704;1313;24336;-53
2021/12/08 11:12:07;;;;;;;14.40;8.70;;;22.70;52.20;;;;;;214385;1313;24248;-52
2021/12/08 11:17:28;;;;;;;15.40;8.60;;;22.70;52.10;;;;;;214507;1314;22630;-52
2021/12/08 11:22:31;;;;;;;15.00;9.30;;;22.60;52.30;;;;;;214523;1312;22574;-56
2021/12/08 11:27:36;;;;;;;12.40;8.50;;;22.70;52.70;;;;;;214516;1313;22574;-54
2021/12/08 11:32:41;;;;;;;13.40;9.30;;;22.60;53.30;;;;;;214461;1316;22580;-52
2021/12/08 11:37:44;;;;;;;12.70;8.50;;;22.60;53.00;;;;;;214570;1315;24229;-52
2021/12/08 11:42:49;;;;;;;15.50;9.20;;;22.50;53.90;;;;;;214566;1312;23046;-53
2021/12/08 11:47:54;;;;;;;12.70;8.50;;;22.60;54.10;;;;;;214138;1307;25265;-53
2021/12/08 11:52:58;;;;;;;12.10;8.10;;;22.50;54.20;;;;;;214431;1312;24362;-52
2021/12/08 11:58:05;;;;;;;15.90;9.90;;;22.50;54.60;;;;;;214545;1313;22579;-51
2021/12/08 12:03:14;;;;;;;15.10;9.60;;;22.50;54.90;;;;;;214308;1307;25492;-50
2021/12/08 12:08:20;;;;;;;14.90;9.00;;;22.50;54.40;;;;;;214248;1311;22641;-54
2021/12/08 12:13:25;;;;;;;14.50;9.60;;;22.50;54.50;;;;;;214400;1310;25245;-54
2021/12/08 12:18:33;;;;;;;14.50;10.00;;;22.50;54.50;;;;;;214381;1312;22635;-50
2021/12/08 12:24:07;;;;;;;13.90;8.70;;;22.50;54.70;;;;;;214204;1312;22580;-51
2021/12/08 12:29:44;;;;;;;13.20;8.60;;;22.50;54.70;;;;;;214194;1312;22590;-53
2021/12/08 12:34:53;;;;;;;14.30;9.10;;;22.50;54.70;;;;;;214416;1313;25409;-53
2021/12/08 12:39:59;;;;;;;13.80;9.40;;;22.50;54.70;;;;;;214315;1315;22580;-52
2021/12/08 12:45:08;;;;;;;12.70;9.20;;;22.50;54.50;;;;;;214421;1312;26740;-52
2021/12/08 12:50:23;;;;;;;13.60;9.00;;;22.50;54.60;;;;;;214532;1309;22574;-51
2021/12/08 12:55:35;;;;;;;12.80;8.50;;;22.40;54.80;;;;;;214372;1312;25604;-52
2021/12/08 13:00:57;;;;;;;;;;;22.50;55.00;;;;;;214509;1316;22622;-51
2021/12/08 13:06:03;;;;;;;12.20;8.50;;;22.40;55.10;;;;;;214518;1314;23255;-52
2021/12/08 13:11:34;;;;;;;15.90;8.90;;;22.30;55.10;;;;;;214496;1312;25485;-52
2021/12/08 13:16:38;;;;;;;12.00;8.50;;;22.30;55.50;;;;;;214331;1312;25576;-55
2021/12/08 13:21:52;;;;;;;12.20;8.40;;;22.20;55.30;;;;;;214319;1313;22713;-51
2021/12/08 13:27:10;;;;;;;12.70;8.50;;;22.20;55.40;;;;;;214512;1312;22646;-53
2021/12/08 13:32:16;;;;;;;13.10;8.90;;;22.20;55.50;;;;;;214236;1312;22571;-51
2021/12/08 13:37:25;;;;;;;12.40;8.50;;;22.20;55.60;;;;;;214167;1312;22567;-51
2021/12/08 13:42:29;;;;;;;13.50;8.90;;;22.20;55.80;;;;;;214214;1313;25429;-53
2021/12/08 13:47:35;;;;;;;12.00;8.40;;;22.20;56.10;;;;;;214345;1315;25281;-52
2021/12/08 13:52:43;;;;;;;13.90;8.70;;;22.30;55.80;;;;;;214345;1313;24003;-51
2021/12/08 13:57:50;;;;;;;13.50;9.40;;;22.30;55.50;;;;;;214358;1316;22600;-52
2021/12/08 14:03:18;;;;;;;11.20;7.90;;;22.40;55.40;;;;;;214335;1315;24396;-51
2021/12/08 14:08:34;;;;;;;13.80;8.60;;;22.30;55.40;;;;;;214384;1313;22645;-53
2021/12/08 14:13:48;;;;;;;13.10;9.10;;;22.30;55.90;;;;;;214380;1312;22654;-55
2021/12/08 14:18:55;;;;;;;13.40;8.90;;;22.20;56.30;;;;;;214385;1313;22686;-55
2021/12/08 14:24:16;;;;;;;12.20;8.30;;;22.20;56.80;;;;;;214529;1306;22631;-52
2021/12/08 14:29:24;;;;;;;13.20;8.70;;;22.20;57.10;;;;;;214379;1313;25456;-55
2021/12/08 14:34:30;;;;;;;13.30;9.40;;;22.10;57.20;;;;;;214402;1312;24326;-52
2021/12/08 14:39:48;;;;;;;14.60;9.00;;;22.10;57.40;;;;;;214356;1313;26634;-52
2021/12/08 14:45:06;;;;;;;12.60;8.50;;;22.10;57.30;;;;;;214729;1313;22696;-53
2021/12/08 14:50:23;;;;;;;14.30;9.10;;;22.00;57.70;;;;;;214497;1313;24268;-55
2021/12/08 14:55:30;;;;;;;14.30;9.30;;;22.00;58.10;;;;;;214727;1313;23048;-53
2021/12/08 15:00:35;;;;;;;16.00;10.30;;;22.00;58.10;;;;;;214752;1312;22573;-53
2021/12/08 15:05:49;;;;;;;12.30;8.20;;;22.00;57.10;;;;;;214633;1313;24359;-54
2021/12/08 15:10:54;;;;;;;16.40;10.80;;;22.00;57.50;;;;;;214544;1315;22859;-54
2021/12/08 15:16:11;;;;;;;13.00;9.30;;;22.10;57.70;;;;;;214471;1313;23465;-53
2021/12/08 15:21:38;;;;;;;15.10;10.60;;;22.20;58.50;;;;;;214636;1306;24268;-55
2021/12/08 15:26:44;;;;;;;17.50;11.10;;;22.20;59.30;;;;;;214631;1314;22712;-54
2021/12/08 15:31:55;;;;;;;15.80;10.10;;;22.20;60.90;;;;;;214406;1314;22593;-55
2021/12/08 15:37:06;;;;;;;19.00;9.90;;;22.10;61.60;;;;;;214458;1306;25645;-52
2021/12/08 15:42:13;;;;;;;21.70;10.30;;;22.20;61.80;;;;;;214545;1311;22658;-54
2021/12/08 15:47:25;;;;;;;14.00;9.90;;;22.20;61.90;;;;;;214372;1306;24021;-54
2021/12/08 15:52:56;;;;;;;14.50;9.60;;;22.20;61.30;;;;;;214469;1307;22733;-51
2021/12/08 15:58:04;;;;;;;18.20;11.00;;;22.20;61.40;;;;;;214304;1307;205190;-53
2021/12/08 16:03:19;;;;;;;20.40;10.70;;;22.20;61.20;;;;;;214465;1311;25338;-54
2021/12/08 16:08:45;;;;;;;15.30;9.80;;;22.20;61.40;;;;;;214673;1312;22646;-53
2021/12/08 16:14:29;;;;;;;16.30;9.70;;;22.10;61.20;;;;;;214542;1306;22852;-52
2021/12/08 16:20:22;;;;;;;18.10;9.50;;;22.10;61.30;;;;;;214492;1313;24511;-54
2021/12/08 16:25:26;;;;;;;13.40;8.60;;;22.10;61.50;;;;;;214424;1312;23502;-51
2021/12/08 16:30:32;;;;;;;14.90;9.70;;;22.10;61.40;;;;;;214996;1313;26681;-52
2021/12/08 16:35:43;;;;;;;15.90;10.10;;;22.10;61.30;;;;;;215073;1315;25407;-52
2021/12/08 16:46:11;;;;;;;14.10;10.30;;;22.10;61.40;;;;;;214787;1312;26658;-55
2021/12/08 16:51:29;;;;;;;14.50;9.40;;;22.20;61.30;;;;;;214472;1315;22580;-55
2021/12/08 16:56:33;;;;;;;14.90;10.60;;;22.20;60.50;;;;;;214396;1313;22590;-55
2021/12/08 17:01:38;;;;;;;19.90;12.40;;;22.30;59.60;;;;;;214655;1313;22666;-54
2021/12/08 17:06:42;;;;;;;18.00;10.70;;;22.20;59.10;;;;;;214940;1313;22590;-55
2021/12/08 17:11:46;;;;;;;16.60;10.40;;;22.20;59.00;;;;;;214549;1313;22562;-54
2021/12/08 17:16:52;;;;;;;15.60;10.90;;;22.20;59.30;;;;;;214306;1311;22662;-55
2021/12/08 17:22:04;;;;;;;16.40;10.80;;;22.20;59.50;;;;;;214195;1306;23895;-52
2021/12/08 17:27:08;;;;;;;16.90;10.60;;;22.20;59.40;;;;;;214284;1306;25249;-52
2021/12/08 17:32:19;;;;;;;16.30;10.40;;;22.20;60.00;;;;;;214553;1309;26325;-52
2021/12/08 17:37:59;;;;;;;15.70;10.70;;;22.20;60.60;;;;;;214228;1307;22595;-54
2021/12/08 17:43:29;;;;;;;15.40;10.70;;;22.20;60.30;;;;;;214110;1308;26549;-56
2021/12/08 17:49:10;;;;;;;17.40;11.80;;;22.10;60.20;;;;;;214419;1309;22942;-54
2021/12/08 17:54:26;;;;;;;17.70;11.50;;;22.20;60.00;;;;;;214441;1306;22575;-55
2021/12/08 17:59:46;;;;;;;18.40;10.90;;;22.10;59.30;;;;;;214499;1306;22558;-53
2021/12/08 18:04:55;;;;;;;23.70;12.20;;;22.10;57.00;;;;;;214228;1309;24415;-56
2021/12/08 18:10:10;;;;;;;22.20;12.40;;;22.10;55.90;;;;;;214345;1306;23960;-55
2021/12/08 18:15:31;;;;;;;21.70;13.30;;;22.10;55.40;;;;;;214308;1311;26031;-54
2021/12/08 18:20:55;;;;;;;22.10;13.00;;;22.10;55.70;;;;;;214286;1306;22570;-55
2021/12/08 18:26:21;;;;;;;31.20;14.10;;;22.20;55.70;;;;;;214314;1307;24445;-54
2021/12/08 18:31:46;;;;;;;28.30;13.30;;;22.30;55.40;;;;;;214276;1306;24244;-55
2021/12/08 18:37:03;;;;;;;24.10;12.70;;;22.30;54.90;;;;;;213839;1309;24262;-55
2021/12/08 18:42:11;;;;;;;20.80;13.10;;;22.30;54.40;;;;;;214249;1306;24421;-54
2021/12/08 18:47:18;;;;;;;21.70;13.40;;;22.30;54.10;;;;;;213976;1307;22973;-55
2021/12/08 18:52:24;;;;;;;24.40;13.50;;;22.20;53.90;;;;;;213880;1309;26035;-54
2021/12/08 18:57:38;;;;;;;23.60;13.90;;;22.20;54.10;;;;;;214222;1309;24332;-50
2021/12/08 19:02:53;;;;;;;23.40;13.10;;;22.30;53.40;;;;;;214457;1309;24281;-58
2021/12/08 19:07:58;;;;;;;23.90;12.50;;;22.20;53.30;;;;;;214544;1314;25356;-55
2021/12/08 19:13:09;;;;;;;23.90;13.90;;;22.20;53.30;;;;;;214177;1309;24336;-56
2021/12/08 19:18:15;;;;;;;25.50;12.90;;;22.20;52.90;;;;;;214310;1309;25418;-50
2021/12/08 19:23:23;;;;;;;26.90;12.90;;;22.30;53.00;;;;;;214308;1315;22577;-54
2021/12/08 19:28:27;;;;;;;26.40;13.50;;;22.10;52.30;;;;;;214448;1316;22902;-55
2021/12/08 19:33:38;;;;;;;27.10;14.30;;;22.10;52.70;;;;;;214358;1314;22572;-54
2021/12/08 19:38:53;;;;;;;23.20;13.40;;;22.10;52.00;;;;;;214404;1315;22560;-52
2021/12/08 19:44:07;;;;;;;29.60;13.70;;;22.10;51.90;;;;;;214284;1306;24245;-54
2021/12/08 19:49:16;;;;;;;34.90;14.70;;;22.10;52.00;;;;;;214502;1305;25532;-52
2021/12/08 19:54:22;;;;;;;32.70;14.80;;;22.20;52.10;;;;;;214413;1306;24308;-53
2021/12/08 19:59:29;;;;;;;26.90;14.90;;;22.30;52.00;;;;;;214514;1309;24390;-55
2021/12/08 20:04:51;;;;;;;27.70;14.00;;;22.30;52.00;;;;;;214399;1307;24245;-53
2021/12/08 20:10:08;;;;;;;23.80;13.10;;;22.40;52.10;;;;;;214306;1306;22646;-55
2021/12/08 20:15:22;;;;;;;27.70;12.70;;;22.30;51.90;;;;;;214527;1306;24302;-51
2021/12/08 20:20:26;;;;;;;27.00;13.30;;;22.40;52.40;;;;;;214212;1306;22575;-55
2021/12/08 20:25:41;;;;;;;23.10;12.60;;;22.40;52.30;;;;;;214287;1311;25088;-53
2021/12/08 20:30:49;;;;;;;29.80;14.20;;;22.40;52.60;;;;;;214274;1313;22644;-55
2021/12/08 20:35:56;;;;;;;29.90;14.10;;;22.30;52.90;;;;;;214261;1311;23831;-52
2021/12/08 20:41:07;;;;;;;24.30;13.60;;;22.30;55.40;;;;;;214552;1310;22590;-52
2021/12/08 20:46:18;;;;;;;26.30;14.50;;;22.20;56.10;;;;;;214078;1307;23819;-55
2021/12/08 20:51:22;;;;;;;27.80;14.30;;;22.20;55.90;;;;;;214200;1309;25473;-53
2021/12/08 20:56:27;;;;;;;24.00;12.80;;;22.20;55.60;;;;;;214190;1306;22561;-53
2021/12/08 21:01:59;;;;;;;27.10;15.30;;;22.30;55.50;;;;;;213951;1310;24305;-54
2021/12/08 21:07:04;;;;;;;26.10;13.60;;;22.20;55.20;;;;;;214471;1306;22655;-52
2021/12/08 21:12:08;;;;;;;24.50;12.50;;;22.20;55.80;;;;;;214322;1306;22588;-54
2021/12/08 21:17:12;;;;;;;23.90;13.20;;;22.20;55.50;;;;;;214418;1307;22714;-52
2021/12/08 21:22:20;;;;;;;23.90;12.60;;;22.20;55.80;;;;;;214153;1306;26687;-54
2021/12/08 21:27:24;;;;;;;23.50;12.60;;;22.20;54.80;;;;;;213797;1306;24276;-53
2021/12/08 21:32:28;;;;;;;22.90;12.10;;;22.30;54.10;;;;;;214065;1306;24470;-56
2021/12/08 21:37:32;;;;;;;22.80;13.80;;;22.30;53.70;;;;;;214217;1306;25647;-54
2021/12/08 21:42:37;;;;;;;21.40;13.80;;;22.40;53.40;;;;;;214143;1306;24451;-55
2021/12/08 21:47:41;;;;;;;28.50;13.70;;;22.90;52.20;;;;;;214004;1306;25537;-52
2021/12/08 21:52:46;;;;;;;26.10;13.70;;;23.40;53.30;;;;;;214102;1306;22554;-52
2021/12/08 21:57:54;;;;;;;31.10;14.60;;;23.60;52.50;;;;;;214308;1309;24324;-52
2021/12/08 22:02:59;;;;;;;23.90;12.80;;;23.60;52.30;;;;;;214486;1309;24557;-52
2021/12/08 22:08:18;;;;;;;21.50;13.50;;;23.60;52.30;;;;;;214277;1309;22837;-54
2021/12/08 22:13:24;;;;;;;22.70;13.30;;;23.70;52.50;;;;;;214350;1306;22559;-50
2021/12/08 22:18:37;;;;;;;21.80;12.70;;;23.70;52.10;;;;;;214386;1310;22598;-50
2021/12/08 22:23:51;;;;;;;19.90;12.30;;;23.70;52.00;;;;;;214327;1307;24445;-53
2021/12/08 22:29:03;;;;;;;21.20;12.90;;;23.70;51.70;;;;;;214229;1310;24312;-55
2021/12/08 22:34:06;;;;;;;22.80;13.50;;;23.80;51.60;;;;;;214556;1309;22689;-52
2021/12/08 22:39:11;;;;;;;20.50;12.50;;;23.90;51.10;;;;;;214364;1306;22560;-53
2021/12/08 22:44:22;;;;;;;21.10;13.30;;;23.90;51.10;;;;;;214267;1306;22587;-52
2021/12/08 22:49:30;;;;;;;24.40;13.40;;;24.00;51.10;;;;;;214278;1306;25583;-56
2021/12/08 22:54:34;;;;;;;18.60;12.40;;;24.30;50.30;;;;;;214268;1306;24081;-53
2021/12/08 22:59:46;;;;;;;18.60;12.80;;;24.30;50.30;;;;;;214272;1307;22577;-54
2021/12/08 23:04:50;;;;;;;17.90;12.90;;;24.30;50.10;;;;;;214407;1314;22563;-53
2021/12/08 23:09:55;;;;;;;22.70;12.70;;;24.30;50.10;;;;;;214405;1309;22545;-55
2021/12/08 23:14:59;;;;;;;24.60;12.90;;;24.30;50.90;;;;;;214363;1306;22625;-52
2021/12/08 23:20:04;;;;;;;19.50;13.20;;;24.30;50.90;;;;;;214306;1306;24395;-55
2021/12/08 23:25:11;;;;;;;22.80;12.70;;;24.20;50.90;;;;;;214482;1307;22568;-52
2021/12/08 23:30:16;;;;;;;17.40;12.10;;;24.10;50.90;;;;;;214623;1310;24253;-53
2021/12/08 23:35:30;;;;;;;17.30;12.00;;;24.10;50.80;;;;;;214695;1306;22567;-53
2021/12/08 23:40:39;;;;;;;18.20;11.60;;;24.10;50.70;;;;;;214426;1306;22633;-51
2021/12/08 23:45:45;;;;;;;19.30;12.00;;;24.10;50.60;;;;;;214631;1312;22568;-52
2021/12/08 23:50:49;;;;;;;21.20;12.70;;;24.10;50.50;;;;;;214609;1311;22542;-56
2021/12/08 23:55:56;;;;;;;17.00;11.50;;;24.10;50.30;;;;;;214666;1312;22554;-53
